Time;durP1;ratioP1;P1;durP2;ratioP2;P2;SDS_P1;SDS_P2;PMS_P1;PMS_P2;Temp;Humidity;BMP_temperature;BMP_pressure;BME280_temperature;BME280_humidity;BME280_pressure;Samples;Min_cycle;Max_cycle;Signal;HPM_P1;HPM_P2
2023/12/01 00:04:32;;;;;;;6.85;4.20;;;5.20;99.90;;;;;;10066540;28;20614;-69
2023/12/01 00:09:23;;;;;;;8.85;4.50;;;5.10;99.90;;;;;;10066351;28;20033;-71
2023/12/01 00:14:14;;;;;;;9.27;5.20;;;5.20;99.90;;;;;;10067425;28;20035;-70
2023/12/01 00:19:04;;;;;;;7.25;4.50;;;5.20;99.90;;;;;;10071526;28;20029;-73
2023/12/01 00:23:55;;;;;;;10.93;5.22;;;5.20;99.90;;;;;;10063729;28;20051;-72
2023/12/01 00:28:46;;;;;;;11.75;6.15;;;5.10;99.90;;;;;;10071437;28;20459;-70
2023/12/01 00:33:36;;;;;;;8.93;4.78;;;5.20;99.90;;;;;;10067970;28;20065;-70
2023/12/01 00:38:27;;;;;;;8.10;4.90;;;5.20;99.90;;;;;;10060048;28;20095;-72
2023/12/01 00:43:18;;;;;;;9.63;5.10;;;5.20;99.90;;;;;;10058722;28;20026;-71
2023/12/01 00:48:09;;;;;;;9.38;5.07;;;5.20;99.90;;;;;;10059641;28;20037;-69
2023/12/01 00:53:00;;;;;;;9.02;5.13;;;5.20;99.90;;;;;;10061920;28;20243;-69
2023/12/01 00:57:53;;;;;;;11.00;5.78;;;5.20;99.90;;;;;;10066250;28;20131;-69
2023/12/01 01:02:44;;;;;;;10.25;5.75;;;5.20;99.90;;;;;;10070476;28;20029;-69
2023/12/01 01:07:34;;;;;;;8.98;5.30;;;5.10;99.90;;;;;;10067036;28;20124;-69
2023/12/01 01:12:25;;;;;;;11.25;5.47;;;4.90;99.90;;;;;;10046317;28;20124;-70
2023/12/01 01:17:16;;;;;;;10.95;5.60;;;4.90;99.90;;;;;;10053221;28;20570;-69
2023/12/01 01:22:07;;;;;;;7.13;5.38;;;5.00;99.90;;;;;;10065657;28;20412;-69
2023/12/01 01:26:57;;;;;;;6.93;4.60;;;5.00;99.90;;;;;;10065031;28;20057;-70
2023/12/01 01:31:48;;;;;;;9.32;5.35;;;5.00;99.90;;;;;;10060589;28;20033;-70
2023/12/01 01:36:39;;;;;;;11.68;6.40;;;5.00;99.90;;;;;;10039137;28;20493;-71
2023/12/01 01:41:29;;;;;;;7.35;4.65;;;5.00;99.90;;;;;;10070834;28;20044;-72
2023/12/01 01:46:20;;;;;;;13.15;5.75;;;4.90;99.90;;;;;;10065919;28;20483;-70
2023/12/01 01:51:13;;;;;;;8.35;5.28;;;4.90;99.90;;;;;;10061913;28;20543;-71
2023/12/01 01:56:05;;;;;;;9.00;5.43;;;4.80;99.90;;;;;;10057393;28;20025;-70
2023/12/01 02:00:55;;;;;;;12.50;6.20;;;4.80;99.90;;;;;;10052123;28;20061;-70
2023/12/01 02:05:49;;;;;;;7.82;4.72;;;4.80;99.90;;;;;;10064314;28;20064;-69
2023/12/01 02:10:40;;;;;;;9.45;6.65;;;4.80;99.90;;;;;;10057129;28;20144;-69
2023/12/01 02:15:32;;;;;;;11.38;5.85;;;4.80;99.90;;;;;;10073973;28;20087;-70
2023/12/01 02:20:22;;;;;;;10.95;5.80;;;4.70;99.90;;;;;;10068388;28;20112;-69
2023/12/01 02:25:14;;;;;;;10.05;6.05;;;4.80;99.90;;;;;;10061068;28;20033;-69
2023/12/01 02:30:05;;;;;;;12.45;6.05;;;4.80;99.90;;;;;;10061969;28;20038;-70
2023/12/01 02:34:56;;;;;;;11.93;6.45;;;4.70;99.90;;;;;;10059461;28;20049;-69
2023/12/01 02:39:46;;;;;;;11.98;6.60;;;4.70;99.90;;;;;;10063823;28;20040;-70
2023/12/01 02:44:37;;;;;;;12.93;6.05;;;4.70;99.90;;;;;;10067567;28;20022;-70
2023/12/01 02:49:28;;;;;;;14.35;7.97;;;4.50;99.90;;;;;;10061235;28;20056;-70
2023/12/01 02:54:18;;;;;;;10.98;6.22;;;4.40;99.90;;;;;;10064085;28;20687;-70
2023/12/01 02:59:09;;;;;;;10.90;6.43;;;4.50;99.90;;;;;;10078556;28;20042;-71
2023/12/01 03:04:00;;;;;;;13.07;5.90;;;4.40;99.90;;;;;;10072276;28;20052;-69
2023/12/01 03:08:50;;;;;;;14.77;6.60;;;4.50;99.90;;;;;;10065359;28;20402;-69
2023/12/01 03:13:41;;;;;;;11.02;6.35;;;4.50;99.90;;;;;;10065866;28;20090;-69
2023/12/01 03:18:31;;;;;;;12.80;6.55;;;4.50;99.90;;;;;;10071054;28;20106;-69
2023/12/01 03:23:22;;;;;;;13.15;6.40;;;4.50;99.90;;;;;;10063710;28;20099;-70
2023/12/01 03:28:14;;;;;;;12.63;7.55;;;4.50;99.90;;;;;;10075059;28;20041;-70
2023/12/01 03:33:05;;;;;;;12.05;6.53;;;4.50;99.90;;;;;;10064790;28;20041;-70
2023/12/01 03:37:56;;;;;;;13.80;6.28;;;4.50;99.90;;;;;;10063792;28;20029;-70
2023/12/01 03:42:48;;;;;;;12.77;6.60;;;4.50;99.90;;;;;;10063462;28;20061;-69
2023/12/01 03:47:42;;;;;;;13.98;6.32;;;4.50;99.90;;;;;;10064409;28;20033;-69
2023/12/01 03:52:33;;;;;;;15.65;7.90;;;4.50;99.90;;;;;;10063571;28;20045;-70
2023/12/01 03:57:23;;;;;;;12.43;7.40;;;4.40;99.90;;;;;;10070024;28;20040;-70
2023/12/01 04:02:15;;;;;;;13.70;6.13;;;4.40;99.90;;;;;;10068235;28;20173;-70
2023/12/01 04:07:07;;;;;;;14.32;6.28;;;4.30;99.90;;;;;;10060515;28;20032;-70
2023/12/01 04:11:57;;;;;;;17.50;8.18;;;4.50;99.90;;;;;;10064151;28;20463;-69
2023/12/01 04:16:48;;;;;;;13.93;7.03;;;4.50;99.90;;;;;;10065816;28;20041;-70
2023/12/01 04:21:38;;;;;;;14.55;7.88;;;4.60;99.90;;;;;;10064409;28;20033;-70
2023/12/01 04:26:29;;;;;;;12.43;7.25;;;4.40;99.90;;;;;;10071501;28;20084;-71
2023/12/01 04:31:19;;;;;;;12.07;6.07;;;4.40;99.90;;;;;;10063851;28;20120;-72
2023/12/01 04:36:11;;;;;;;13.43;6.85;;;4.40;99.90;;;;;;10069684;28;20041;-70
2023/12/01 04:41:02;;;;;;;10.93;5.82;;;4.30;99.90;;;;;;10074818;28;20053;-70
2023/12/01 04:45:53;;;;;;;10.77;6.47;;;4.30;99.90;;;;;;10063193;28;20048;-69
2023/12/01 04:50:48;;;;;;;9.75;5.97;;;4.40;99.90;;;;;;10063483;28;20561;-69
2023/12/01 04:55:39;;;;;;;9.77;6.03;;;4.30;99.90;;;;;;10061581;28;20030;-69
2023/12/01 05:00:29;;;;;;;11.80;7.07;;;4.30;99.90;;;;;;10069737;28;20033;-73
2023/12/01 05:05:25;;;;;;;10.95;5.60;;;4.30;99.90;;;;;;10064786;28;20036;-71
2023/12/01 05:10:23;;;;;;;12.30;6.23;;;4.40;99.90;;;;;;10062083;28;20036;-69
2023/12/01 05:15:18;;;;;;;11.80;6.18;;;4.30;99.90;;;;;;10072775;28;20284;-69
2023/12/01 05:20:15;;;;;;;10.75;5.78;;;4.30;99.90;;;;;;10067912;28;20033;-69
2023/12/01 05:25:06;;;;;;;12.73;6.63;;;4.20;99.90;;;;;;10041867;28;20124;-69
2023/12/01 05:29:57;;;;;;;11.60;5.57;;;4.30;99.90;;;;;;10061668;28;20033;-70
2023/12/01 05:34:47;;;;;;;10.38;6.50;;;4.30;99.90;;;;;;10059000;28;20052;-68
2023/12/01 05:39:38;;;;;;;12.68;5.50;;;4.20;99.90;;;;;;10071226;28;20024;-71
2023/12/01 05:44:30;;;;;;;12.90;5.85;;;4.20;99.90;;;;;;10064614;28;20065;-73
2023/12/01 05:49:20;;;;;;;11.77;6.03;;;4.10;99.90;;;;;;10066567;28;20025;-71
2023/12/01 05:54:11;;;;;;;10.60;4.97;;;4.10;99.90;;;;;;10062046;28;20033;-72
2023/12/01 05:59:04;;;;;;;11.98;6.05;;;4.00;99.90;;;;;;10060863;28;20069;-71
2023/12/01 06:03:55;;;;;;;12.95;5.72;;;4.00;99.90;;;;;;10062257;28;20071;-69
2023/12/01 06:08:46;;;;;;;10.65;5.90;;;4.00;99.90;;;;;;10058206;28;20036;-70
2023/12/01 06:13:36;;;;;;;8.82;4.93;;;4.10;99.90;;;;;;10074395;28;20041;-68
2023/12/01 06:18:29;;;;;;;8.32;4.72;;;4.00;99.90;;;;;;10071767;28;20028;-68
2023/12/01 06:23:20;;;;;;;9.90;4.72;;;3.90;99.90;;;;;;10065712;28;20034;-70
2023/12/01 06:28:11;;;;;;;8.18;4.93;;;4.00;99.90;;;;;;10066217;28;20026;-69
2023/12/01 06:33:02;;;;;;;7.60;4.85;;;4.00;99.90;;;;;;10058554;28;20052;-69
2023/12/01 06:37:53;;;;;;;8.50;4.50;;;4.00;99.90;;;;;;10065658;28;20111;-69
2023/12/01 06:42:48;;;;;;;11.15;4.88;;;4.00;99.90;;;;;;10062047;28;20127;-68
2023/12/01 06:47:40;;;;;;;9.18;5.05;;;4.00;99.90;;;;;;10061017;28;20026;-68
2023/12/01 06:52:32;;;;;;;11.75;5.45;;;3.90;99.90;;;;;;10055108;28;20041;-69
2023/12/01 06:57:23;;;;;;;13.88;6.05;;;4.00;99.90;;;;;;10061054;28;20076;-69
2023/12/01 07:02:17;;;;;;;10.35;4.18;;;3.90;99.90;;;;;;10065508;28;20471;-69
2023/12/01 07:07:08;;;;;;;7.18;4.28;;;4.00;99.90;;;;;;10060951;28;20022;-68
2023/12/01 07:12:03;;;;;;;10.60;5.10;;;3.90;99.90;;;;;;10055488;28;20573;-68
2023/12/01 07:16:54;;;;;;;6.35;3.88;;;3.80;99.90;;;;;;10060332;28;20590;-68
2023/12/01 07:21:45;;;;;;;8.60;4.47;;;3.80;99.90;;;;;;10056208;28;20045;-69
2023/12/01 07:26:36;;;;;;;8.57;4.55;;;3.80;99.90;;;;;;10067188;28;20506;-69
2023/12/01 07:31:27;;;;;;;11.05;5.65;;;3.80;99.90;;;;;;10069886;28;20081;-69
2023/12/01 07:36:18;;;;;;;10.05;4.47;;;3.80;99.90;;;;;;10063749;28;20041;-69
2023/12/01 07:41:12;;;;;;;9.52;5.15;;;3.90;99.90;;;;;;10072861;28;20053;-69
2023/12/01 07:46:03;;;;;;;8.32;4.70;;;3.90;99.90;;;;;;10069083;28;20045;-71
2023/12/01 07:50:54;;;;;;;11.63;5.05;;;3.90;99.90;;;;;;10068369;28;20107;-70
2023/12/01 07:55:45;;;;;;;7.85;4.78;;;3.90;99.90;;;;;;10062269;28;20044;-74
2023/12/01 08:00:40;;;;;;;12.13;5.20;;;3.80;99.90;;;;;;10066206;28;20044;-71
2023/12/01 08:05:31;;;;;;;10.25;4.78;;;3.80;99.90;;;;;;10065517;28;20057;-71
2023/12/01 08:10:22;;;;;;;7.82;4.80;;;4.00;99.90;;;;;;10061645;28;20061;-69
2023/12/01 08:15:14;;;;;;;10.57;4.85;;;4.00;99.90;;;;;;10062215;28;20041;-74
2023/12/01 08:20:08;;;;;;;11.10;5.78;;;3.90;99.90;;;;;;10059002;28;20060;-67
2023/12/01 08:24:59;;;;;;;9.60;5.65;;;3.90;99.90;;;;;;10062090;28;20029;-67
2023/12/01 08:29:50;;;;;;;9.10;5.85;;;4.00;99.90;;;;;;10069442;28;20029;-71
2023/12/01 08:34:42;;;;;;;11.57;6.18;;;4.00;99.90;;;;;;10062259;28;20530;-68
2023/12/01 08:39:33;;;;;;;13.23;5.43;;;4.00;99.90;;;;;;10073673;28;20503;-68
2023/12/01 08:44:24;;;;;;;11.55;5.10;;;3.90;99.90;;;;;;10068313;28;20458;-69
2023/12/01 08:49:14;;;;;;;13.57;5.32;;;4.00;99.90;;;;;;10068315;28;20038;-68
2023/12/01 08:54:05;;;;;;;10.05;5.55;;;3.90;99.90;;;;;;10062062;28;20048;-67
2023/12/01 08:58:55;;;;;;;12.05;5.72;;;3.90;99.90;;;;;;10062969;28;20034;-68
2023/12/01 09:03:46;;;;;;;14.18;5.32;;;3.80;99.90;;;;;;10064942;28;20041;-66
2023/12/01 09:08:37;;;;;;;14.27;5.95;;;3.90;99.90;;;;;;10062063;28;20025;-67
2023/12/01 09:13:30;;;;;;;10.80;5.43;;;3.90;99.90;;;;;;10065498;28;20081;-67
2023/12/01 09:18:21;;;;;;;13.93;6.47;;;4.00;99.90;;;;;;10068450;28;20128;-67
2023/12/01 09:23:11;;;;;;;11.98;6.70;;;3.90;99.90;;;;;;10063960;28;20033;-66
2023/12/01 09:28:02;;;;;;;18.95;8.30;;;3.80;99.90;;;;;;10066638;28;20036;-66
2023/12/01 09:32:53;;;;;;;12.88;7.03;;;4.00;99.90;;;;;;10062589;28;20037;-66
2023/12/01 09:37:43;;;;;;;12.40;5.95;;;4.00;99.90;;;;;;10041746;28;20053;-66
2023/12/01 09:42:37;;;;;;;12.23;7.07;;;3.90;99.90;;;;;;10055649;28;20037;-67
2023/12/01 09:47:33;;;;;;;16.23;7.15;;;3.80;99.90;;;;;;10061650;28;20365;-68
2023/12/01 09:52:24;;;;;;;13.13;6.60;;;3.90;99.90;;;;;;10058161;28;20034;-65
2023/12/01 09:57:16;;;;;;;15.55;6.53;;;4.00;99.90;;;;;;10064589;28;20025;-67
2023/12/01 10:02:07;;;;;;;16.90;7.82;;;3.90;99.90;;;;;;10051808;28;20080;-65
2023/12/01 10:07:00;;;;;;;14.80;5.93;;;4.00;99.90;;;;;;10064373;28;20032;-66
2023/12/01 10:12:08;;;;;;;14.73;6.93;;;3.90;99.90;;;;;;10057982;28;20049;-66
2023/12/01 10:17:03;;;;;;;18.77;7.88;;;3.90;99.90;;;;;;10060066;28;20068;-65
2023/12/01 10:21:55;;;;;;;18.63;8.60;;;4.10;99.90;;;;;;10065830;28;20604;-65
2023/12/01 10:26:46;;;;;;;18.88;8.18;;;4.00;99.90;;;;;;10064984;28;20021;-64
2023/12/01 10:31:47;;;;;;;22.52;9.73;;;4.00;99.90;;;;;;10061637;28;20099;-68
2023/12/01 10:36:38;;;;;;;23.38;9.10;;;4.00;99.90;;;;;;10056632;28;20042;-70
2023/12/01 10:41:28;;;;;;;21.60;9.82;;;3.90;99.90;;;;;;10057835;28;20506;-69
2023/12/01 10:46:22;;;;;;;22.92;8.45;;;3.90;99.90;;;;;;10064231;28;20029;-68
2023/12/01 10:51:15;;;;;;;24.33;9.30;;;3.80;99.90;;;;;;10054933;28;20029;-75
2023/12/01 10:56:10;;;;;;;22.75;8.80;;;3.80;99.90;;;;;;10068608;28;20025;-68
2023/12/01 11:01:02;;;;;;;26.05;8.77;;;3.90;99.90;;;;;;10075700;28;20026;-70
2023/12/01 11:05:59;;;;;;;22.52;10.13;;;3.90;99.90;;;;;;10070461;28;20031;-69
2023/12/01 11:11:03;;;;;;;23.52;8.82;;;4.10;99.90;;;;;;10063310;28;20530;-68
2023/12/01 11:15:56;;;;;;;20.35;9.27;;;3.90;99.90;;;;;;10079770;28;20031;-70
2023/12/01 11:20:48;;;;;;;21.13;8.05;;;4.00;99.90;;;;;;10071682;28;20047;-71
2023/12/01 11:25:42;;;;;;;19.83;8.63;;;3.90;99.90;;;;;;10071948;28;20053;-70
2023/12/01 11:31:01;;;;;;;18.30;7.75;;;3.90;99.90;;;;;;10074190;28;20381;-67
2023/12/01 11:36:28;;;;;;;20.40;7.85;;;3.80;99.90;;;;;;10064835;28;20148;-68
2023/12/01 11:41:22;;;;;;;20.85;8.88;;;3.80;99.90;;;;;;10070027;28;20044;-66
2023/12/01 11:46:15;;;;;;;21.20;7.68;;;3.90;99.90;;;;;;10069214;28;20045;-68
2023/12/01 11:51:09;;;;;;;17.75;8.93;;;4.00;99.90;;;;;;10068544;28;20052;-69
2023/12/01 11:56:00;;;;;;;20.30;8.88;;;4.10;99.90;;;;;;10060548;28;20030;-69
2023/12/01 12:00:51;;;;;;;20.50;8.15;;;4.00;99.90;;;;;;10061910;28;20398;-68
2023/12/01 12:05:42;;;;;;;18.10;7.82;;;4.00;99.90;;;;;;10062553;28;20046;-68
2023/12/01 12:10:32;;;;;;;19.98;8.82;;;4.00;99.90;;;;;;10062062;28;20037;-68
2023/12/01 12:15:24;;;;;;;18.80;8.35;;;4.00;99.90;;;;;;10041602;28;20060;-67
2023/12/01 12:20:22;;;;;;;16.80;7.72;;;3.90;99.90;;;;;;10059760;28;20021;-69
2023/12/01 12:25:13;;;;;;;18.30;7.13;;;3.90;99.90;;;;;;10065128;28;20030;-70
2023/12/01 12:30:05;;;;;;;17.83;7.68;;;3.90;99.90;;;;;;10059620;28;20025;-68
2023/12/01 12:34:55;;;;;;;18.33;7.00;;;4.00;99.90;;;;;;10058244;28;20060;-69
2023/12/01 12:39:50;;;;;;;14.25;6.07;;;3.90;99.90;;;;;;10061849;28;20460;-69
2023/12/01 12:44:44;;;;;;;14.60;7.25;;;3.90;99.90;;;;;;10050021;28;20095;-66
2023/12/01 12:49:34;;;;;;;14.38;7.05;;;4.00;99.90;;;;;;10066283;28;20164;-68
2023/12/01 12:54:26;;;;;;;17.65;7.90;;;4.10;99.90;;;;;;10058869;28;20045;-67
2023/12/01 12:59:16;;;;;;;16.85;7.03;;;4.00;99.90;;;;;;10070590;28;20056;-69
2023/12/01 13:04:07;;;;;;;18.23;7.45;;;3.90;99.90;;;;;;10051380;28;20542;-69
2023/12/01 13:09:01;;;;;;;18.13;7.30;;;3.90;99.90;;;;;;10067315;28;20051;-69
2023/12/01 13:13:53;;;;;;;13.80;6.60;;;3.90;99.90;;;;;;10041100;28;20535;-68
2023/12/01 13:18:45;;;;;;;21.70;8.05;;;4.00;99.90;;;;;;10041951;28;20036;-68
2023/12/01 13:23:38;;;;;;;18.60;8.88;;;4.00;99.90;;;;;;10058161;28;20041;-67
2023/12/01 13:28:29;;;;;;;15.88;6.90;;;4.00;99.90;;;;;;10065500;28;20435;-68
2023/12/01 13:33:21;;;;;;;15.27;6.88;;;4.00;99.90;;;;;;10062094;28;20063;-69
2023/12/01 13:38:15;;;;;;;21.40;9.27;;;3.90;99.90;;;;;;10057069;28;20068;-68
2023/12/01 13:43:07;;;;;;;20.02;8.25;;;3.90;99.90;;;;;;10057463;28;20037;-67
2023/12/01 13:47:57;;;;;;;20.40;8.05;;;4.00;99.90;;;;;;10063515;28;20036;-68
2023/12/01 13:52:49;;;;;;;20.52;8.82;;;4.00;99.90;;;;;;10060358;28;20111;-68
2023/12/01 13:57:40;;;;;;;15.77;7.35;;;4.00;99.90;;;;;;10062096;28;20026;-70
2023/12/01 14:02:31;;;;;;;16.70;7.47;;;3.90;99.90;;;;;;10068054;28;20037;-67
2023/12/01 14:07:21;;;;;;;15.30;7.32;;;3.90;99.90;;;;;;10063078;28;20440;-68
2023/12/01 14:12:12;;;;;;;19.13;8.45;;;3.90;99.90;;;;;;10058856;28;20616;-69
2023/12/01 14:17:03;;;;;;;17.13;7.30;;;3.90;99.90;;;;;;10051873;28;20463;-67
2023/12/01 14:21:54;;;;;;;14.30;7.05;;;3.90;99.90;;;;;;10064702;28;20030;-67
2023/12/01 14:26:47;;;;;;;15.45;6.63;;;3.80;99.90;;;;;;10066578;28;20088;-66
2023/12/01 14:31:37;;;;;;;16.45;7.47;;;3.80;99.90;;;;;;10060219;28;20057;-67
2023/12/01 14:36:28;;;;;;;13.68;7.00;;;3.80;99.90;;;;;;10069632;28;20049;-69
2023/12/01 14:41:19;;;;;;;17.15;7.43;;;3.70;99.90;;;;;;10079664;28;20021;-69
2023/12/01 14:46:09;;;;;;;17.15;7.07;;;3.70;99.90;;;;;;10072637;28;20025;-68
2023/12/01 14:51:00;;;;;;;18.98;8.95;;;3.70;99.90;;;;;;10070868;28;20397;-68
2023/12/01 14:55:51;;;;;;;16.40;7.30;;;3.70;99.90;;;;;;10066297;28;20112;-68
2023/12/01 15:00:42;;;;;;;16.98;7.82;;;3.80;99.90;;;;;;10065336;28;20041;-68
2023/12/01 15:05:32;;;;;;;16.55;6.80;;;3.70;99.90;;;;;;10048023;28;20029;-68
2023/12/01 15:10:23;;;;;;;17.67;7.55;;;3.80;99.90;;;;;;10063879;28;20032;-68
2023/12/01 15:15:14;;;;;;;18.80;7.43;;;3.80;99.90;;;;;;10076559;28;20069;-66
2023/12/01 15:20:05;;;;;;;21.15;8.63;;;3.70;99.90;;;;;;10075107;28;20032;-66
2023/12/01 15:24:56;;;;;;;15.65;8.02;;;3.60;99.90;;;;;;10074473;28;20030;-67
2023/12/01 15:29:47;;;;;;;15.52;7.05;;;3.70;99.90;;;;;;10070690;28;20036;-65
2023/12/01 15:34:38;;;;;;;16.98;6.93;;;3.70;99.90;;;;;;10064017;28;20146;-66
2023/12/01 15:39:28;;;;;;;16.88;6.75;;;3.70;99.90;;;;;;10060371;28;20463;-66
2023/12/01 15:44:19;;;;;;;15.40;7.38;;;3.70;99.90;;;;;;10064016;28;20581;-67
2023/12/01 15:49:10;;;;;;;16.40;7.55;;;3.80;99.90;;;;;;10067552;28;20399;-68
2023/12/01 15:54:00;;;;;;;12.63;7.15;;;3.80;99.90;;;;;;10062466;28;20045;-67
2023/12/01 15:58:55;;;;;;;16.73;6.82;;;3.80;99.90;;;;;;10059997;28;20491;-68
2023/12/01 16:03:46;;;;;;;15.98;7.30;;;3.70;99.90;;;;;;10067659;28;20030;-68
2023/12/01 16:08:37;;;;;;;15.88;6.63;;;3.70;99.90;;;;;;10065259;28;20024;-68
2023/12/01 16:13:28;;;;;;;18.02;7.25;;;3.70;99.90;;;;;;10065545;28;20041;-71
2023/12/01 16:18:23;;;;;;;10.95;5.95;;;3.70;99.90;;;;;;10070582;28;20025;-69
2023/12/01 16:23:13;;;;;;;17.15;7.25;;;3.60;99.90;;;;;;10065986;28;20026;-69
2023/12/01 16:28:05;;;;;;;12.48;6.03;;;3.80;99.90;;;;;;10071663;28;20024;-70
2023/12/01 16:32:55;;;;;;;13.70;7.72;;;3.70;99.90;;;;;;10061798;28;20025;-69
2023/12/01 16:37:47;;;;;;;16.08;7.03;;;3.60;99.90;;;;;;10058646;28;20064;-69
2023/12/01 16:42:37;;;;;;;14.88;7.50;;;3.60;99.90;;;;;;10068325;28;20634;-69
2023/12/01 16:47:29;;;;;;;13.70;6.80;;;3.60;99.90;;;;;;10053978;28;20029;-68
2023/12/01 16:52:20;;;;;;;19.08;6.50;;;3.60;99.90;;;;;;10060136;28;20087;-68
2023/12/01 16:57:10;;;;;;;19.00;6.70;;;3.60;99.90;;;;;;10059782;28;20437;-68
2023/12/01 17:02:01;;;;;;;15.70;5.97;;;3.60;99.90;;;;;;10059536;28;20100;-69
2023/12/01 17:06:51;;;;;;;17.58;7.60;;;3.60;99.90;;;;;;10064720;28;20124;-67
2023/12/01 17:11:42;;;;;;;14.85;7.10;;;3.50;99.90;;;;;;10060560;28;20041;-70
2023/12/01 17:16:33;;;;;;;17.52;6.95;;;3.60;99.90;;;;;;10067331;28;20091;-72
2023/12/01 17:21:23;;;;;;;16.40;7.22;;;3.60;99.90;;;;;;10067329;28;20395;-70
2023/12/01 17:26:14;;;;;;;13.13;6.72;;;3.70;99.90;;;;;;10069054;28;20036;-71
2023/12/01 17:31:05;;;;;;;17.42;7.25;;;3.70;99.90;;;;;;10065823;28;20037;-71
2023/12/01 17:35:56;;;;;;;16.25;6.82;;;3.70;99.90;;;;;;10060239;28;20420;-68
2023/12/01 17:40:47;;;;;;;13.15;6.43;;;3.70;99.90;;;;;;10056925;28;20033;-69
2023/12/01 17:45:38;;;;;;;13.98;6.40;;;3.60;99.90;;;;;;10067122;28;20032;-70
2023/12/01 17:50:28;;;;;;;16.75;6.80;;;3.60;99.90;;;;;;10065686;28;20033;-73
2023/12/01 17:55:19;;;;;;;17.75;7.03;;;3.60;99.90;;;;;;10043712;28;20028;-70
2023/12/01 18:00:10;;;;;;;16.25;7.78;;;3.60;99.90;;;;;;10062213;28;20035;-73
2023/12/01 18:05:01;;;;;;;16.08;6.95;;;3.60;99.90;;;;;;10066115;28;20499;-70
2023/12/01 18:09:51;;;;;;;16.45;6.82;;;3.50;99.90;;;;;;10060913;28;20132;-70
2023/12/01 18:14:43;;;;;;;16.02;7.45;;;3.60;99.90;;;;;;10062532;28;20045;-70
2023/12/01 18:19:33;;;;;;;13.90;6.40;;;3.60;99.90;;;;;;10067572;28;20029;-69
2023/12/01 18:24:24;;;;;;;15.43;7.18;;;3.50;99.90;;;;;;10046577;28;20132;-69
2023/12/01 18:29:14;;;;;;;19.92;7.45;;;3.40;99.90;;;;;;10064152;28;20427;-69
2023/12/01 18:34:05;;;;;;;16.27;6.88;;;3.50;99.90;;;;;;10060726;28;20042;-69
2023/12/01 18:38:56;;;;;;;17.60;7.93;;;3.50;99.90;;;;;;10060943;28;20495;-70
2023/12/01 18:43:47;;;;;;;12.27;6.47;;;3.50;99.90;;;;;;10065761;28;20033;-70
2023/12/01 18:48:38;;;;;;;16.58;6.28;;;3.50;99.90;;;;;;10066246;28;20040;-68
2023/12/01 18:53:28;;;;;;;9.80;5.40;;;3.50;99.90;;;;;;10041482;28;20041;-70
2023/12/01 18:58:22;;;;;;;13.27;7.22;;;3.50;99.90;;;;;;10061990;28;20032;-72
2023/12/01 19:03:13;;;;;;;16.00;6.80;;;3.50;99.90;;;;;;10067246;28;20029;-69
2023/12/01 19:08:03;;;;;;;15.57;6.88;;;3.50;99.90;;;;;;10064728;28;20108;-69
2023/12/01 19:12:54;;;;;;;15.00;7.43;;;3.40;99.90;;;;;;10057036;28;20049;-68
2023/12/01 19:17:45;;;;;;;16.83;6.97;;;3.50;99.90;;;;;;10064566;28;20185;-69
2023/12/01 19:22:36;;;;;;;13.43;6.72;;;3.30;99.90;;;;;;10071743;28;20056;-68
2023/12/01 19:27:27;;;;;;;15.48;7.63;;;3.30;99.90;;;;;;10071811;28;20017;-70
2023/12/01 19:32:17;;;;;;;16.92;7.85;;;3.40;99.90;;;;;;10066334;28;20207;-68
2023/12/01 19:37:11;;;;;;;14.60;6.97;;;3.40;99.90;;;;;;10064668;28;20534;-69
2023/12/01 19:42:02;;;;;;;14.88;6.45;;;3.40;99.90;;;;;;10044359;28;20087;-71
2023/12/01 19:46:54;;;;;;;17.58;7.55;;;3.20;99.90;;;;;;10067381;28;20128;-69
2023/12/01 19:51:45;;;;;;;13.40;6.70;;;3.20;99.90;;;;;;10067655;28;20120;-69
2023/12/01 19:56:37;;;;;;;16.48;6.57;;;3.20;99.90;;;;;;10061687;28;20034;-68
2023/12/01 20:01:28;;;;;;;15.30;7.20;;;3.30;99.90;;;;;;10073305;28;20025;-68
2023/12/01 20:06:19;;;;;;;16.13;7.22;;;3.30;99.90;;;;;;10070167;28;20025;-67
2023/12/01 20:11:10;;;;;;;13.90;6.22;;;3.30;99.90;;;;;;10067061;28;20059;-72
2023/12/01 20:16:02;;;;;;;13.70;7.57;;;3.30;99.90;;;;;;10062192;28;20034;-68
2023/12/01 20:20:52;;;;;;;16.23;7.20;;;3.30;99.90;;;;;;10073489;28;20033;-68
2023/12/01 20:25:43;;;;;;;14.75;6.45;;;3.30;99.90;;;;;;10071973;28;20041;-70
2023/12/01 20:30:34;;;;;;;15.23;6.57;;;3.30;99.90;;;;;;10072308;28;21271;-69
2023/12/01 20:35:25;;;;;;;14.88;6.15;;;3.20;99.90;;;;;;10068925;28;20057;-70
2023/12/01 20:40:16;;;;;;;16.33;6.53;;;3.20;99.90;;;;;;10064869;28;20555;-68
2023/12/01 20:45:07;;;;;;;12.38;6.35;;;3.10;99.90;;;;;;10065205;28;20064;-69
2023/12/01 20:49:58;;;;;;;16.50;7.57;;;3.10;99.90;;;;;;10065145;28;20396;-73
2023/12/01 20:54:49;;;;;;;14.43;7.45;;;3.10;99.90;;;;;;10059994;28;20033;-68
2023/12/01 20:59:39;;;;;;;10.63;6.05;;;3.10;99.90;;;;;;10056367;28;20036;-68
2023/12/01 21:04:32;;;;;;;14.15;6.28;;;3.30;99.90;;;;;;10057567;28;20091;-68
2023/12/01 21:09:23;;;;;;;14.88;6.15;;;3.30;99.90;;;;;;10061641;28;20041;-68
2023/12/01 21:14:15;;;;;;;14.43;6.38;;;3.20;99.90;;;;;;10062168;28;20652;-68
2023/12/01 21:19:06;;;;;;;15.05;6.15;;;3.10;99.90;;;;;;10061356;28;20029;-72
2023/12/01 21:23:57;;;;;;;12.48;6.43;;;3.20;99.90;;;;;;10060841;28;20148;-69
2023/12/01 21:28:48;;;;;;;12.88;6.03;;;3.10;99.90;;;;;;10041824;28;20514;-68
2023/12/01 21:33:39;;;;;;;13.27;6.22;;;3.00;99.90;;;;;;10062482;28;20050;-69
2023/12/01 21:38:31;;;;;;;17.42;6.35;;;3.10;99.90;;;;;;10060617;28;20058;-70
2023/12/01 21:43:22;;;;;;;14.73;6.30;;;3.10;99.90;;;;;;10041830;28;20124;-69
2023/12/01 21:48:12;;;;;;;14.60;6.53;;;2.90;99.90;;;;;;10064410;28;20546;-69
2023/12/01 21:53:03;;;;;;;15.43;5.75;;;2.70;99.90;;;;;;10061739;28;20049;-69
2023/12/01 21:57:54;;;;;;;14.70;6.03;;;2.80;99.90;;;;;;10056120;28;20025;-71
2023/12/01 22:02:45;;;;;;;11.30;5.88;;;2.80;99.90;;;;;;10067220;28;20510;-68
2023/12/01 22:07:36;;;;;;;11.75;5.95;;;2.70;99.90;;;;;;10049479;28;20059;-70
2023/12/01 22:12:27;;;;;;;14.77;6.15;;;2.70;99.90;;;;;;10060148;28;20102;-70
2023/12/01 22:17:17;;;;;;;11.73;5.43;;;2.60;99.90;;;;;;10038138;28;20037;-69
2023/12/01 22:22:12;;;;;;;9.65;4.95;;;2.60;99.90;;;;;;10063595;28;20446;-71
2023/12/01 22:27:03;;;;;;;10.50;5.45;;;2.70;99.90;;;;;;10049354;28;20523;-69
2023/12/01 22:31:54;;;;;;;11.95;6.05;;;2.60;99.90;;;;;;10046916;28;20522;-69
2023/12/01 22:36:44;;;;;;;13.07;5.82;;;2.70;99.90;;;;;;10061864;28;20046;-69
2023/12/01 22:41:35;;;;;;;12.10;6.43;;;2.70;99.90;;;;;;10057417;28;20030;-70
2023/12/01 22:46:26;;;;;;;12.85;5.78;;;2.70;99.90;;;;;;10058010;28;20098;-72
2023/12/01 22:51:16;;;;;;;12.65;6.43;;;2.60;99.90;;;;;;10060284;28;20471;-72
2023/12/01 22:56:09;;;;;;;8.68;5.05;;;2.80;99.90;;;;;;10064472;28;21249;-69
2023/12/01 23:01:00;;;;;;;13.38;5.95;;;2.70;99.90;;;;;;10073534;28;20091;-72
2023/12/01 23:05:51;;;;;;;13.60;5.65;;;2.80;99.90;;;;;;10075706;28;20640;-72
2023/12/01 23:10:42;;;;;;;10.82;5.28;;;2.70;99.90;;;;;;10070373;28;20076;-71
2023/12/01 23:15:32;;;;;;;11.68;5.82;;;2.70;99.90;;;;;;10068575;28;20074;-72
2023/12/01 23:20:23;;;;;;;13.10;4.70;;;2.70;99.90;;;;;;10075115;28;20086;-71
2023/12/01 23:25:14;;;;;;;9.35;5.10;;;2.70;99.90;;;;;;10073131;28;20475;-71
2023/12/01 23:30:05;;;;;;;11.95;4.95;;;2.70;99.90;;;;;;10072138;28;20069;-72
2023/12/01 23:34:56;;;;;;;10.98;5.43;;;2.70;99.90;;;;;;10068222;28;20537;-70
2023/12/01 23:39:47;;;;;;;10.50;4.95;;;2.80;99.90;;;;;;10067496;28;20037;-73
2023/12/01 23:44:37;;;;;;;14.27;5.28;;;2.70;99.90;;;;;;10065447;28;20024;-73
2023/12/01 23:49:28;;;;;;;14.43;5.75;;;2.60;99.90;;;;;;10071216;28;20610;-70
2023/12/01 23:54:24;;;;;;;;;;;2.60;99.90;;;;;;10063577;28;20430;-68
2023/12/01 23:59:14;;;;;;;8.68;4.75;;;2.70;99.90;;;;;;10066284;28;19919;-71
